Time;durP1;ratioP1;P1;durP2;ratioP2;P2;SDS_P1;SDS_P2;PMS_P1;PMS_P2;Temp;Humidity;BMP_temperature;BMP_pressure;BME280_temperature;BME280_humidity;BME280_pressure;Samples;Min_cycle;Max_cycle;Signal;HPM_P1;HPM_P2
2023/10/24 00:00:00;;;;;;;2.80;2.50;;;20.20;70.80;;;;;;4975200;28;20133;-26
2023/10/24 00:02:28;;;;;;;4.25;2.60;;;;;;;;;;4975237;28;20078;-30
2023/10/24 00:04:56;;;;;;;4.00;2.88;;;19.70;69.20;;;;;;4974994;28;20047;-26
2023/10/24 00:07:23;;;;;;;2.60;2.40;;;20.50;67.50;;;;;;4975601;28;20090;-26
2023/10/24 00:09:50;;;;;;;3.25;2.80;;;20.10;75.30;;;;;;4975265;28;20082;-26
2023/10/24 00:12:17;;;;;;;3.53;2.60;;;;;;;;;;4986036;28;20396;-26
2023/10/24 00:14:43;;;;;;;3.38;2.47;;;20.00;79.10;;;;;;4994345;28;20109;-26
2023/10/24 00:17:11;;;;;;;2.83;2.45;;;;;;;;;;4974973;28;20054;-28
2023/10/24 00:19:37;;;;;;;3.20;2.60;;;20.10;79.30;;;;;;4975075;28;20109;-26
2023/10/24 00:22:05;;;;;;;3.40;2.33;;;20.10;60.80;;;;;;4974970;28;20086;-26
2023/10/24 00:24:33;;;;;;;3.78;2.40;;;;;;;;;;4974327;28;20074;-27
2023/10/24 00:26:59;;;;;;;3.72;2.90;;;20.30;79.60;;;;;;4974920;28;20089;-26
2023/10/24 00:29:26;;;;;;;2.63;2.17;;;20.50;79.90;;;;;;4974924;28;20109;-26
2023/10/24 00:31:53;;;;;;;3.30;2.40;;;;;;;;;;4974483;28;20050;-26
2023/10/24 00:34:20;;;;;;;3.10;2.55;;;19.30;79.20;;;;;;4975000;28;20165;-26
2023/10/24 00:36:47;;;;;;;3.25;2.42;;;20.30;79.70;;;;;;4974418;28;20607;-26
2023/10/24 00:39:15;;;;;;;3.00;2.40;;;19.50;75.20;;;;;;4974526;28;20451;-26
2023/10/24 00:41:41;;;;;;;3.60;2.72;;;19.60;76.40;;;;;;4974619;28;20051;-26
2023/10/24 00:44:08;;;;;;;3.28;2.50;;;19.60;70.20;;;;;;4974236;28;20051;-26
2023/10/24 00:46:35;;;;;;;2.60;2.40;;;;;;;;;;4974390;28;20050;-26
2023/10/24 00:49:02;;;;;;;2.83;2.17;;;19.90;79.30;;;;;;4974451;28;20574;-26
2023/10/24 00:51:29;;;;;;;2.83;2.30;;;;;;;;;;4974336;28;20105;-27
2023/10/24 00:53:56;;;;;;;2.90;2.28;;;18.70;78.80;;;;;;4974401;28;20043;-26
2023/10/24 00:56:24;;;;;;;3.58;2.60;;;19.10;79.30;;;;;;4974668;28;20086;-26
2023/10/24 00:58:51;;;;;;;3.45;2.80;;;18.80;79.20;;;;;;4974192;28;20070;-26
2023/10/24 01:01:18;;;;;;;4.25;2.40;;;19.70;64.30;;;;;;4974428;28;20090;-27
2023/10/24 01:03:45;;;;;;;3.00;2.65;;;20.10;79.90;;;;;;4973184;28;20137;-26
2023/10/24 01:06:11;;;;;;;3.28;2.40;;;20.60;73.00;;;;;;4973644;28;20051;-26
2023/10/24 01:08:38;;;;;;;3.00;2.30;;;19.50;73.80;;;;;;4973692;28;20046;-26
2023/10/24 01:11:05;;;;;;;3.00;2.30;;;19.70;79.50;;;;;;4975021;28;20086;-26
2023/10/24 01:13:33;;;;;;;2.60;2.28;;;19.70;61.00;;;;;;4973117;28;20512;-27
2023/10/24 01:16:00;;;;;;;3.22;2.50;;;;;;;;;;4973368;28;20054;-28
2023/10/24 01:18:27;;;;;;;3.40;2.50;;;;;;;;;;4973508;28;20043;-26
2023/10/24 01:20:54;;;;;;;3.17;2.65;;;;;;;;;;4973697;28;20046;-28
2023/10/24 01:23:23;;;;;;;2.42;2.17;;;20.10;80.10;;;;;;4973112;28;20070;-26
2023/10/24 01:25:50;;;;;;;2.70;2.30;;;20.00;80.10;;;;;;4973437;28;20065;-27
2023/10/24 01:28:17;;;;;;;3.28;2.47;;;18.70;79.20;;;;;;4973222;28;20055;-26
2023/10/24 01:30:44;;;;;;;3.67;2.50;;;19.80;80.20;;;;;;4973607;28;20050;-26
2023/10/24 01:33:11;;;;;;;3.22;2.50;;;;;;;;;;4973035;28;20511;-28
2023/10/24 01:35:38;;;;;;;3.20;2.28;;;19.70;80.10;;;;;;4973469;28;20082;-26
2023/10/24 01:38:05;;;;;;;2.38;2.10;;;;;;;;;;4972820;28;20050;-26
2023/10/24 01:40:33;;;;;;;4.03;2.72;;;19.30;80.00;;;;;;4973217;28;20054;-27
2023/10/24 01:43:00;;;;;;;3.45;2.50;;;20.00;72.20;;;;;;4973057;28;20109;-27
2023/10/24 01:45:27;;;;;;;3.40;2.85;;;19.70;80.30;;;;;;4973232;28;20067;-26
2023/10/24 01:47:53;;;;;;;2.75;2.40;;;20.00;68.00;;;;;;4972658;28;20039;-27
2023/10/24 01:50:20;;;;;;;2.70;2.33;;;;;;;;;;4973236;28;20137;-27
2023/10/24 01:52:48;;;;;;;3.35;2.53;;;;;;;;;;4972342;28;20476;-28
2023/10/24 01:55:14;;;;;;;2.92;2.28;;;19.60;80.40;;;;;;4972876;28;20481;-27
2023/10/24 01:57:43;;;;;;;2.70;2.40;;;19.50;61.30;;;;;;4972612;28;20504;-28
2023/10/24 02:00:11;;;;;;;3.08;2.30;;;19.70;70.30;;;;;;4972951;28;20570;-27
2023/10/24 02:02:38;;;;;;;2.83;2.40;;;;;;;;;;4972844;28;20058;-28
2023/10/24 02:05:05;;;;;;;3.63;2.28;;;19.20;79.90;;;;;;4973284;28;20511;-27
2023/10/24 02:07:32;;;;;;;2.65;2.22;;;;;;;;;;4973137;28;20051;-27
2023/10/24 02:09:59;;;;;;;2.75;2.40;;;19.90;80.20;;;;;;4973211;28;20388;-27
2023/10/24 02:12:26;;;;;;;2.78;2.40;;;;;;;;;;4984830;28;20417;-28
2023/10/24 02:14:54;;;;;;;3.17;2.40;;;19.00;80.30;;;;;;4992417;28;20046;-27
2023/10/24 02:17:21;;;;;;;2.45;2.00;;;19.00;79.90;;;;;;4992539;28;20054;-27
2023/10/24 02:19:48;;;;;;;2.55;2.33;;;;;;;;;;4992540;28;20046;-27
2023/10/24 02:22:15;;;;;;;3.13;2.25;;;20.30;80.60;;;;;;4992190;28;20050;-27
2023/10/24 02:24:42;;;;;;;2.75;2.42;;;19.70;80.40;;;;;;4987888;28;20225;-27
2023/10/24 02:27:09;;;;;;;2.85;2.20;;;;;;;;;;4973234;28;20093;-28
2023/10/24 02:29:35;;;;;;;2.35;2.13;;;20.00;80.60;;;;;;4972894;28;20090;-27
2023/10/24 02:32:04;;;;;;;2.60;2.08;;;19.40;61.50;;;;;;4972976;28;20046;-27
2023/10/24 02:34:31;;;;;;;2.95;2.28;;;;;;;;;;4972666;28;20082;-28
2023/10/24 02:36:58;;;;;;;2.78;2.42;;;19.00;80.10;;;;;;4972468;28;20527;-27
2023/10/24 02:39:25;;;;;;;4.60;2.53;;;;;;;;;;4972645;28;20528;-29
2023/10/24 02:41:52;;;;;;;2.78;2.47;;;19.30;61.50;;;;;;4973014;28;20054;-27
2023/10/24 02:44:19;;;;;;;2.38;2.10;;;19.40;72.00;;;;;;4972483;28;20086;-27
2023/10/24 02:46:46;;;;;;;3.20;2.50;;;19.00;80.50;;;;;;4972827;28;20130;-27
2023/10/24 02:49:14;;;;;;;3.13;2.30;;;19.30;61.60;;;;;;4972783;28;20051;-27
2023/10/24 02:51:41;;;;;;;2.97;2.08;;;;;;;;;;4972620;28;20086;-28
2023/10/24 02:54:08;;;;;;;2.40;2.20;;;19.70;80.60;;;;;;4972934;28;20452;-27
2023/10/24 02:56:35;;;;;;;3.13;2.30;;;;;;;;;;4972896;28;20514;-29
2023/10/24 02:59:02;;;;;;;4.68;2.30;;;19.40;63.00;;;;;;4972575;28;20047;-27
2023/10/24 03:01:29;;;;;;;2.53;2.20;;;;;;;;;;4972582;28;20043;-27
2023/10/24 03:03:56;;;;;;;2.53;2.03;;;19.40;80.80;;;;;;4972604;28;20082;-27
2023/10/24 03:06:24;;;;;;;2.35;2.10;;;19.00;80.70;;;;;;4976461;28;20059;-27
2023/10/24 03:08:51;;;;;;;2.60;2.30;;;18.10;80.30;;;;;;4976370;28;20090;-27
2023/10/24 03:11:21;;;;;;;3.83;2.00;;;20.00;62.10;;;;;;4978906;28;20069;-28
2023/10/24 03:13:48;;;;;;;2.83;2.17;;;19.30;77.40;;;;;;4995404;28;20047;-27
2023/10/24 03:16:15;;;;;;;2.28;2.00;;;20.10;81.30;;;;;;4995577;28;20050;-27
2023/10/24 03:18:42;;;;;;;2.97;2.08;;;;;;;;;;4995350;28;20141;-29
2023/10/24 03:21:09;;;;;;;2.83;2.08;;;19.40;81.00;;;;;;4989758;28;20586;-27
2023/10/24 03:23:37;;;;;;;2.70;2.10;;;18.90;80.50;;;;;;4975872;28;20114;-27
2023/10/24 03:26:05;;;;;;;2.75;2.17;;;19.80;80.90;;;;;;4976146;28;20059;-27
2023/10/24 03:28:31;;;;;;;4.05;2.40;;;19.00;80.90;;;;;;4975821;28;20508;-27
2023/10/24 03:31:02;;;;;;;2.20;2.00;;;19.80;66.80;;;;;;4975815;28;20508;-27
2023/10/24 03:33:29;;;;;;;2.42;1.95;;;18.30;80.30;;;;;;4975581;28;20073;-27
2023/10/24 03:35:57;;;;;;;2.50;2.22;;;;;;;;;;4975301;28;20105;-29
2023/10/24 03:38:23;;;;;;;3.58;2.03;;;19.30;81.20;;;;;;4975525;28;20506;-27
2023/10/24 03:40:52;;;;;;;3.00;2.20;;;19.10;61.80;;;;;;4975960;28;20070;-27
2023/10/24 03:43:19;;;;;;;2.70;2.15;;;19.20;61.90;;;;;;4975363;28;20055;-29
2023/10/24 03:45:46;;;;;;;2.35;2.00;;;19.60;81.20;;;;;;4975817;28;20129;-27
2023/10/24 03:48:12;;;;;;;2.95;2.00;;;19.10;79.90;;;;;;4975854;28;20055;-27
2023/10/24 03:50:40;;;;;;;3.83;2.30;;;19.40;80.90;;;;;;4975487;28;20488;-27
2023/10/24 03:53:06;;;;;;;2.28;2.08;;;20.10;68.10;;;;;;4975158;28;20102;-27
2023/10/24 03:55:33;;;;;;;2.58;2.08;;;19.00;70.70;;;;;;4975423;28;20090;-27
2023/10/24 03:58:01;;;;;;;2.67;2.10;;;20.00;81.30;;;;;;4975515;28;20411;-27
2023/10/24 04:00:28;;;;;;;2.75;2.13;;;19.30;81.10;;;;;;4975291;28;20086;-27
2023/10/24 04:02:55;;;;;;;2.83;2.05;;;;;;;;;;4975217;28;20097;-29
2023/10/24 04:05:22;;;;;;;2.00;1.80;;;19.20;81.10;;;;;;4974935;28;20508;-27
2023/10/24 04:07:49;;;;;;;2.30;2.10;;;19.30;81.50;;;;;;4975154;28;20055;-27
2023/10/24 04:10:16;;;;;;;2.78;2.38;;;19.30;74.50;;;;;;4975212;28;20191;-27
2023/10/24 04:12:43;;;;;;;2.85;2.00;;;18.40;77.80;;;;;;4989269;28;20055;-27
2023/10/24 04:15:11;;;;;;;2.63;2.17;;;19.10;62.10;;;;;;4993871;28;20487;-28
2023/10/24 04:17:38;;;;;;;3.15;2.05;;;;;;;;;;4986551;28;20051;-27
2023/10/24 04:20:07;;;;;;;2.50;2.00;;;18.80;80.80;;;;;;4975057;28;20488;-27
2023/10/24 04:22:34;;;;;;;2.75;2.10;;;;;;;;;;4974905;28;20136;-28
2023/10/24 04:25:01;;;;;;;2.00;1.73;;;19.20;69.60;;;;;;4974719;28;20055;-27
2023/10/24 04:27:28;;;;;;;2.72;2.00;;;19.00;64.70;;;;;;4974993;28;20054;-27
2023/10/24 04:29:55;;;;;;;2.45;2.10;;;19.50;81.30;;;;;;4975043;28;20046;-27
2023/10/24 04:32:23;;;;;;;2.28;2.05;;;19.00;62.10;;;;;;4974670;28;20055;-27
2023/10/24 04:34:51;;;;;;;2.20;2.00;;;;;;;;;;4974485;28;20046;-29
2023/10/24 04:37:18;;;;;;;2.75;2.22;;;;;;;;;;4974196;28;20097;-27
2023/10/24 04:39:46;;;;;;;2.75;2.10;;;;;;;;;;4974648;28;20054;-28
2023/10/24 04:42:13;;;;;;;4.07;2.33;;;;;;;;;;4974826;28;20054;-27
2023/10/24 04:44:39;;;;;;;2.30;1.98;;;19.40;81.70;;;;;;4974266;28;20046;-27
2023/10/24 04:47:06;;;;;;;2.65;2.00;;;19.00;81.50;;;;;;4974789;28;20086;-27
2023/10/24 04:49:36;;;;;;;2.63;2.00;;;19.10;81.60;;;;;;4974575;28;20050;-27
2023/10/24 04:52:03;;;;;;;2.10;1.85;;;19.00;74.90;;;;;;4974474;28;20055;-27
2023/10/24 04:54:30;;;;;;;2.22;1.95;;;18.60;81.10;;;;;;4973984;28;20101;-27
2023/10/24 04:56:59;;;;;;;2.60;2.05;;;;;;;;;;4974341;28;20050;-28
2023/10/24 04:59:26;;;;;;;2.50;2.10;;;19.00;81.70;;;;;;4974357;28;20105;-27
2023/10/24 05:01:53;;;;;;;2.63;1.90;;;;;;;;;;4974366;28;20074;-29
2023/10/24 05:04:20;;;;;;;2.70;2.10;;;19.10;81.60;;;;;;4973902;28;20488;-27
2023/10/24 05:06:48;;;;;;;2.20;1.80;;;18.80;81.50;;;;;;4974163;28;20705;-27
2023/10/24 05:09:16;;;;;;;4.82;2.00;;;19.40;81.80;;;;;;4973881;28;20109;-27
2023/10/24 05:11:43;;;;;;;2.17;1.85;;;18.60;81.10;;;;;;4980430;28;20145;-27
2023/10/24 05:14:09;;;;;;;1.90;1.70;;;18.00;73.60;;;;;;4983363;28;20102;-27
2023/10/24 05:16:37;;;;;;;3.63;2.05;;;18.80;81.60;;;;;;4973956;28;20078;-27
2023/10/24 05:19:05;;;;;;;2.55;2.00;;;18.90;81.30;;;;;;4973975;28;20121;-27
2023/10/24 05:21:32;;;;;;;2.72;1.80;;;18.60;66.50;;;;;;4973559;28;20497;-28
2023/10/24 05:24:00;;;;;;;2.50;2.03;;;19.50;82.00;;;;;;4973854;28;20089;-27
2023/10/24 05:26:27;;;;;;;2.22;2.00;;;;;;;;;;4973444;28;20059;-27
2023/10/24 05:28:54;;;;;;;2.15;1.90;;;;;;;;;;4973738;28;20412;-27
2023/10/24 05:31:21;;;;;;;3.50;2.10;;;19.30;68.00;;;;;;4973728;28;20054;-27
2023/10/24 05:33:49;;;;;;;2.50;1.92;;;17.80;78.70;;;;;;4973270;28;20051;-28
2023/10/24 05:36:17;;;;;;;2.20;2.00;;;19.10;73.90;;;;;;4973035;28;20073;-27
2023/10/24 05:38:43;;;;;;;2.97;2.10;;;19.90;81.90;;;;;;4974061;28;20459;-27
2023/10/24 05:41:12;;;;;;;2.83;2.13;;;18.90;62.30;;;;;;4973639;28;20074;-27
2023/10/24 05:43:39;;;;;;;2.45;1.80;;;17.90;81.30;;;;;;4973402;28;20046;-27
2023/10/24 05:46:06;;;;;;;1.98;1.70;;;18.60;81.20;;;;;;4973489;28;20517;-27
2023/10/24 05:48:33;;;;;;;1.90;1.67;;;18.50;69.60;;;;;;4973326;28;20061;-27
2023/10/24 05:50:59;;;;;;;2.40;1.88;;;18.90;81.50;;;;;;4973254;28;20047;-27
2023/10/24 05:53:26;;;;;;;2.10;1.70;;;;;;;;;;4973125;28;20058;-28
2023/10/24 05:55:53;;;;;;;1.80;1.50;;;18.90;81.90;;;;;;4973626;28;20043;-27
2023/10/24 05:58:23;;;;;;;1.77;1.60;;;19.80;82.10;;;;;;4973222;28;20054;-27
2023/10/24 06:00:49;;;;;;;2.00;1.70;;;17.60;74.20;;;;;;4973221;28;20563;-27
2023/10/24 06:03:16;;;;;;;2.03;1.67;;;18.50;81.40;;;;;;4972999;28;20110;-27
2023/10/24 06:05:43;;;;;;;2.13;1.60;;;;;;;;;;4973156;28;20084;-28
2023/10/24 06:08:10;;;;;;;1.83;1.60;;;18.70;81.70;;;;;;4973066;28;20492;-27
2023/10/24 06:10:37;;;;;;;1.83;1.60;;;;;;;;;;4973255;28;20074;-28
2023/10/24 06:13:04;;;;;;;2.17;1.70;;;17.70;69.80;;;;;;4972685;28;20136;-27
2023/10/24 06:15:32;;;;;;;2.08;1.88;;;19.30;82.20;;;;;;4973101;28;20094;-27
2023/10/24 06:17:59;;;;;;;1.70;1.50;;;19.10;72.00;;;;;;4973342;28;20190;-27
2023/10/24 06:20:25;;;;;;;2.00;1.80;;;18.50;65.10;;;;;;4972945;28;20050;-28
2023/10/24 06:22:52;;;;;;;2.38;1.70;;;19.20;65.10;;;;;;4988790;28;20058;-28
2023/10/24 06:25:19;;;;;;;2.40;1.90;;;;;;;;;;4991966;28;20082;-27
2023/10/24 06:27:46;;;;;;;2.10;1.70;;;18.60;81.90;;;;;;4992382;28;20058;-27
2023/10/24 06:30:13;;;;;;;2.30;1.80;;;18.50;81.60;;;;;;4980798;28;20058;-27
2023/10/24 06:32:41;;;;;;;2.08;1.80;;;18.30;77.30;;;;;;4973304;28;20460;-27
2023/10/24 06:35:09;;;;;;;2.10;1.65;;;19.50;78.70;;;;;;4972783;28;20102;-27
2023/10/24 06:37:36;;;;;;;1.98;1.77;;;18.60;75.10;;;;;;4972577;28;20047;-27
2023/10/24 06:40:03;;;;;;;2.08;1.75;;;17.60;76.10;;;;;;4976579;28;20090;-27
2023/10/24 06:42:30;;;;;;;2.63;1.70;;;;;;;;;;4976904;28;20057;-28
2023/10/24 06:44:57;;;;;;;2.13;1.70;;;18.70;82.10;;;;;;4976345;28;20047;-27
2023/10/24 06:47:24;;;;;;;2.67;1.80;;;;;;;;;;4977068;28;20051;-29
2023/10/24 06:49:52;;;;;;;2.75;1.70;;;18.70;62.50;;;;;;4976582;28;20054;-28
2023/10/24 06:52:19;;;;;;;2.08;1.70;;;19.80;82.20;;;;;;4976587;28;20050;-27
2023/10/24 06:54:46;;;;;;;2.75;1.77;;;18.90;81.80;;;;;;4976356;28;20113;-27
2023/10/24 06:57:13;;;;;;;4.05;1.55;;;18.20;65.80;;;;;;4976451;28;20110;-28
2023/10/24 06:59:39;;;;;;;1.90;1.70;;;19.00;81.90;;;;;;4976681;28;20059;-27
2023/10/24 07:02:06;;;;;;;1.48;1.30;;;;;;;;;;4976410;28;20563;-28
2023/10/24 07:04:34;;;;;;;2.55;1.60;;;;;;;;;;4976100;28;20098;-27
2023/10/24 07:07:02;;;;;;;1.67;1.40;;;18.80;62.50;;;;;;4976227;28;20055;-29
2023/10/24 07:09:29;;;;;;;2.20;1.50;;;;;;;;;;4976208;28;20471;-29
2023/10/24 07:11:55;;;;;;;1.60;1.27;;;19.40;74.60;;;;;;4978362;28;20059;-27
2023/10/24 07:14:23;;;;;;;1.52;1.35;;;;;;;;;;4975622;28;20051;-27
2023/10/24 07:16:51;;;;;;;1.92;1.50;;;;;;;;;;4976146;28;20050;-28
2023/10/24 07:19:18;;;;;;;2.92;1.40;;;19.00;81.70;;;;;;4976089;28;20054;-27
2023/10/24 07:21:44;;;;;;;2.05;1.58;;;19.50;81.80;;;;;;4975963;28;20081;-27
2023/10/24 07:24:13;;;;;;;2.38;1.38;;;19.40;62.20;;;;;;4975805;28;20101;-27
2023/10/24 07:26:40;;;;;;;1.83;1.27;;;19.00;81.10;;;;;;4975876;28;20051;-27
2023/10/24 07:29:06;;;;;;;1.90;1.25;;;20.50;81.40;;;;;;4975914;28;20078;-27
2023/10/24 07:31:34;;;;;;;1.73;1.27;;;;;;;;;;4976044;28;20105;-28
2023/10/24 07:34:00;;;;;;;1.50;1.20;;;20.10;81.00;;;;;;4975756;28;20055;-27
2023/10/24 07:36:30;;;;;;;2.22;1.30;;;18.90;79.80;;;;;;4975316;28;20078;-27
2023/10/24 07:39:00;;;;;;;1.60;1.30;;;;;;;;;;4975743;28;20447;-29
2023/10/24 07:41:28;;;;;;;1.95;1.30;;;20.10;77.60;;;;;;4975574;28;20047;-27
2023/10/24 07:43:55;;;;;;;3.05;1.30;;;20.50;80.40;;;;;;4975608;28;20456;-27
2023/10/24 07:46:21;;;;;;;1.83;1.30;;;20.60;80.30;;;;;;4975773;28;20175;-27
2023/10/24 07:48:51;;;;;;;3.78;1.20;;;;;;;;;;4974230;28;20453;-27
2023/10/24 07:51:18;;;;;;;1.88;1.20;;;20.50;63.70;;;;;;4974762;28;20047;-28
2023/10/24 07:53:45;;;;;;;1.30;1.13;;;20.50;79.50;;;;;;4975587;28;20054;-27
2023/10/24 07:56:11;;;;;;;2.42;1.30;;;20.80;79.90;;;;;;4975653;28;20042;-27
2023/10/24 07:58:39;;;;;;;1.90;1.10;;;21.10;64.70;;;;;;4975715;28;20051;-28
2023/10/24 08:01:07;;;;;;;2.65;1.40;;;;;;;;;;4975014;28;20389;-28
2023/10/24 08:03:33;;;;;;;1.40;1.10;;;21.50;80.00;;;;;;4974883;28;20133;-27
2023/10/24 08:06:00;;;;;;;1.38;1.15;;;;;;;;;;4974916;28;20493;-29
2023/10/24 08:08:28;;;;;;;1.20;1.10;;;19.50;78.40;;;;;;4975681;28;20054;-27
2023/10/24 08:10:54;;;;;;;1.20;1.10;;;20.80;63.60;;;;;;4975461;28;20102;-28
2023/10/24 08:13:21;;;;;;;2.45;1.13;;;21.70;79.70;;;;;;4955777;28;20118;-27
2023/10/24 08:15:51;;;;;;;1.42;1.20;;;20.80;60.40;;;;;;4955892;28;20122;-27
2023/10/24 08:18:18;;;;;;;1.58;1.10;;;21.70;79.30;;;;;;4956104;28;20492;-27
2023/10/24 08:20:45;;;;;;;1.70;1.20;;;20.60;67.60;;;;;;4955789;28;20089;-28
2023/10/24 08:23:12;;;;;;;1.45;1.05;;;20.60;79.00;;;;;;4957385;28;20508;-27
2023/10/24 08:25:39;;;;;;;2.00;1.35;;;;;;;;;;4979121;28;20070;-28
2023/10/24 08:28:07;;;;;;;1.10;1.00;;;21.60;79.40;;;;;;4974738;28;20121;-27
2023/10/24 08:30:34;;;;;;;1.83;1.20;;;21.00;79.00;;;;;;4975086;28;20074;-27
2023/10/24 08:33:02;;;;;;;1.13;1.02;;;20.10;78.50;;;;;;4974461;28;20051;-27
2023/10/24 08:35:29;;;;;;;1.60;1.10;;;20.90;71.20;;;;;;4974220;28;20047;-27
2023/10/24 08:37:56;;;;;;;1.48;1.10;;;21.00;77.10;;;;;;4974131;28;20077;-27
2023/10/24 08:40:22;;;;;;;2.15;1.27;;;22.00;79.20;;;;;;4974596;28;20098;-27
2023/10/24 08:42:49;;;;;;;1.30;0.93;;;;;;;;;;4973908;28;20133;-29
2023/10/24 08:45:18;;;;;;;1.80;1.20;;;20.60;79.10;;;;;;4974154;28;20078;-30
2023/10/24 08:47:47;;;;;;;1.20;1.10;;;;;;;;;;4974360;28;20082;-30
2023/10/24 08:50:15;;;;;;;1.52;1.10;;;21.30;61.60;;;;;;4974886;28;20075;-29
2023/10/24 08:52:42;;;;;;;1.40;1.13;;;21.20;61.80;;;;;;4973967;28;20051;-29
2023/10/24 08:55:09;;;;;;;1.60;1.10;;;20.70;78.60;;;;;;4973638;28;20082;-29
2023/10/24 08:57:38;;;;;;;1.30;1.10;;;20.90;60.10;;;;;;4973994;28;20128;-28
2023/10/24 09:00:07;;;;;;;1.65;1.17;;;20.80;70.60;;;;;;4974061;28;20046;-30
2023/10/24 09:02:35;;;;;;;1.30;1.10;;;;;;;;;;4973839;28;20058;-29
2023/10/24 09:05:02;;;;;;;1.65;1.10;;;20.40;78.50;;;;;;4973836;28;20129;-30
2023/10/24 09:07:31;;;;;;;1.85;1.20;;;20.00;78.00;;;;;;4974090;28;20043;-29
2023/10/24 09:09:57;;;;;;;1.25;1.15;;;20.60;79.30;;;;;;4973822;28;20043;-30
2023/10/24 09:12:24;;;;;;;2.60;1.52;;;;;;;;;;4975730;28;20047;-28
2023/10/24 09:14:51;;;;;;;1.50;1.30;;;;;;;;;;4972089;28;20054;-29
2023/10/24 09:17:17;;;;;;;1.40;1.20;;;20.70;78.50;;;;;;4973763;28;20042;-27
2023/10/24 09:19:45;;;;;;;2.38;1.10;;;;;;;;;;4973767;28;20082;-27
2023/10/24 09:22:14;;;;;;;1.55;1.30;;;21.00;79.00;;;;;;4973731;28;20109;-27
2023/10/24 09:24:45;;;;;;;1.73;1.23;;;20.80;60.20;;;;;;4973314;28;20051;-28
2023/10/24 09:27:14;;;;;;;1.83;1.30;;;20.70;60.20;;;;;;4973801;28;20046;-29
2023/10/24 09:29:41;;;;;;;1.20;1.10;;;;;;;;;;4973432;28;20492;-29
2023/10/24 09:32:08;;;;;;;1.48;1.30;;;20.80;79.10;;;;;;4972824;28;20055;-27
2023/10/24 09:34:35;;;;;;;2.67;1.38;;;;;;;;;;4972627;28;20532;-29
2023/10/24 09:37:06;;;;;;;1.42;1.27;;;19.60;78.40;;;;;;4970334;28;20098;-27
2023/10/24 09:39:33;;;;;;;1.60;1.27;;;21.50;79.30;;;;;;4973513;28;20043;-27
2023/10/24 09:42:01;;;;;;;1.90;1.40;;;20.10;60.40;;;;;;4972906;28;20501;-27
2023/10/24 09:44:28;;;;;;;1.63;1.33;;;20.50;78.90;;;;;;4972804;28;20043;-27
2023/10/24 09:46:54;;;;;;;1.23;1.13;;;20.50;79.30;;;;;;4972027;28;20054;-27
2023/10/24 09:49:22;;;;;;;1.75;1.30;;;;;;;;;;4973810;28;20069;-28
2023/10/24 09:51:48;;;;;;;2.13;1.50;;;20.20;78.80;;;;;;4973537;28;20091;-27
2023/10/24 09:54:15;;;;;;;1.75;1.30;;;20.30;63.40;;;;;;4973193;28;20063;-29
2023/10/24 09:56:42;;;;;;;3.13;1.33;;;;;;;;;;4971703;28;20097;-27
2023/10/24 09:59:10;;;;;;;2.42;1.40;;;20.20;79.90;;;;;;4973227;28;20046;-27
2023/10/24 10:01:37;;;;;;;1.73;1.40;;;20.60;79.70;;;;;;4973481;28;20050;-27
2023/10/24 10:04:04;;;;;;;2.22;1.33;;;19.70;60.50;;;;;;4976181;28;20477;-27
2023/10/24 10:06:31;;;;;;;2.35;1.50;;;19.40;78.90;;;;;;4982206;28;20403;-27
2023/10/24 10:08:58;;;;;;;2.15;1.38;;;;;;;;;;4973268;28;20054;-27
2023/10/24 10:11:27;;;;;;;1.70;1.27;;;20.10;79.70;;;;;;4977125;28;20411;-27
2023/10/24 10:13:54;;;;;;;3.00;1.38;;;20.60;80.00;;;;;;4991806;28;20467;-27
2023/10/24 10:16:30;;;;;;;3.38;1.40;;;21.10;80.00;;;;;;4992577;28;20113;-27
2023/10/24 10:19:25;;;;;;;3.00;1.30;;;19.90;68.00;;;;;;4992610;28;20406;-27
2023/10/24 10:21:57;;;;;;;;;;;20.20;61.40;;;;;;4961331;28;20051;-29
2023/10/24 10:24:47;;;;;;;1.40;1.25;;;19.70;80.00;;;;;;4972916;28;20346;-27
2023/10/24 10:27:21;;;;;;;3.42;1.30;;;20.40;80.40;;;;;;4973228;28;20051;-27
2023/10/24 10:29:56;;;;;;;2.72;1.30;;;20.20;80.10;;;;;;4972987;28;20072;-29
2023/10/24 10:32:29;;;;;;;1.70;1.30;;;18.90;79.10;;;;;;4972611;28;20101;-29
2023/10/24 10:34:56;;;;;;;1.42;1.30;;;20.00;79.70;;;;;;4992097;28;20140;-29
2023/10/24 10:37:23;;;;;;;2.33;1.52;;;20.90;67.20;;;;;;4979295;28;20082;-29
2023/10/24 10:40:23;;;;;;;3.65;1.30;;;20.90;80.20;;;;;;4973073;28;20404;-29
2023/10/24 10:42:50;;;;;;;1.30;1.20;;;19.90;61.20;;;;;;4963580;28;20050;-29
2023/10/24 10:45:24;;;;;;;1.90;1.20;;;19.90;61.20;;;;;;4972331;28;20101;-28
2023/10/24 10:47:52;;;;;;;1.98;1.40;;;19.90;61.30;;;;;;4972680;28;20389;-29
2023/10/24 10:50:22;;;;;;;1.50;1.20;;;19.90;61.20;;;;;;4972625;28;20055;-29
2023/10/24 10:52:52;;;;;;;1.33;1.17;;;19.00;61.10;;;;;;4972317;28;20508;-29
2023/10/24 10:55:34;;;;;;;2.10;1.30;;;19.50;79.70;;;;;;4972289;28;20460;-29
2023/10/24 10:58:10;;;;;;;1.33;1.20;;;19.50;80.10;;;;;;4985861;28;20160;-29
2023/10/24 11:00:44;;;;;;;1.30;1.20;;;20.40;80.50;;;;;;4992189;28;20480;-29
2023/10/24 11:03:23;;;;;;;1.37;1.10;;;19.50;79.60;;;;;;4983517;28;20057;-29
2023/10/24 11:05:50;;;;;;;1.67;1.35;;;19.90;61.30;;;;;;4971312;28;20070;-29
2023/10/24 11:08:23;;;;;;;1.63;1.23;;;20.40;80.60;;;;;;4958418;28;20476;-29
2023/10/24 11:10:56;;;;;;;1.73;1.27;;;19.90;61.40;;;;;;4972766;28;20046;-28
2023/10/24 11:13:37;;;;;;;1.42;1.20;;;19.70;80.20;;;;;;4972275;28;20051;-30
2023/10/24 11:16:04;;;;;;;1.60;1.30;;;19.60;80.20;;;;;;4972569;28;20386;-30
2023/10/24 11:18:33;;;;;;;2.00;1.33;;;19.40;79.70;;;;;;4972012;28;20042;-30
2023/10/24 11:20:59;;;;;;;2.05;1.10;;;19.80;80.20;;;;;;4972245;28;20527;-30
2023/10/24 11:23:26;;;;;;;1.55;1.20;;;19.30;64.70;;;;;;4972079;28;20109;-30
2023/10/24 11:25:54;;;;;;;1.40;1.20;;;19.90;61.30;;;;;;4973581;28;20408;-27
2023/10/24 11:28:20;;;;;;;1.45;1.20;;;19.40;62.60;;;;;;4976282;28;20054;-27
2023/10/24 11:30:48;;;;;;;1.40;1.10;;;20.00;80.10;;;;;;4976274;28;20050;-27
2023/10/24 11:33:15;;;;;;;1.40;1.15;;;;;;;;;;4975856;28;20057;-31
2023/10/24 11:35:43;;;;;;;1.25;1.15;;;20.30;80.20;;;;;;4975642;28;20098;-27
2023/10/24 11:38:09;;;;;;;1.20;1.00;;;19.70;79.50;;;;;;4975049;28;20078;-27
2023/10/24 11:40:36;;;;;;;1.70;1.00;;;19.50;79.70;;;;;;4975500;28;20047;-27
2023/10/24 11:43:04;;;;;;;1.55;1.20;;;19.80;72.10;;;;;;4974335;28;20055;-27
2023/10/24 11:45:31;;;;;;;1.35;1.00;;;20.80;69.30;;;;;;4973034;28;20055;-27
2023/10/24 11:47:58;;;;;;;1.27;1.17;;;;;;;;;;4975718;28;20141;-28
2023/10/24 11:50:38;;;;;;;1.73;1.02;;;20.50;61.00;;;;;;4973862;28;20058;-30
2023/10/24 11:53:06;;;;;;;1.40;1.10;;;20.50;60.90;;;;;;4974725;28;20055;-29
2023/10/24 11:55:33;;;;;;;1.05;0.95;;;;;;;;;;4973678;28;20771;-28
2023/10/24 11:58:00;;;;;;;2.28;1.20;;;20.60;79.10;;;;;;4961431;28;20102;-27
2023/10/24 12:00:30;;;;;;;1.08;0.98;;;20.60;60.70;;;;;;4955675;28;20126;-28
2023/10/24 12:02:57;;;;;;;1.60;1.20;;;21.60;79.80;;;;;;4969537;28;20686;-29
2023/10/24 12:05:24;;;;;;;1.50;1.00;;;;;;;;;;4974124;28;20051;-30
2023/10/24 12:07:54;;;;;;;1.48;1.00;;;20.80;60.60;;;;;;4974751;28;20439;-29
2023/10/24 12:10:22;;;;;;;1.05;0.95;;;20.90;79.10;;;;;;4974747;28;20106;-29
2023/10/24 12:12:49;;;;;;;1.00;0.90;;;21.00;78.90;;;;;;4989479;28;20078;-29
2023/10/24 12:15:16;;;;;;;1.10;0.95;;;;;;;;;;4982362;28;20054;-29
2023/10/24 12:17:45;;;;;;;1.48;1.20;;;20.90;60.40;;;;;;4974028;28;20046;-29
2023/10/24 12:20:12;;;;;;;1.10;1.00;;;20.90;69.10;;;;;;4973916;28;20061;-29
2023/10/24 12:22:39;;;;;;;1.25;1.00;;;19.90;78.40;;;;;;4974016;28;20078;-29
2023/10/24 12:25:07;;;;;;;1.20;1.10;;;20.40;61.90;;;;;;4973525;28;20047;-29
2023/10/24 12:27:35;;;;;;;1.08;0.93;;;21.40;79.20;;;;;;4973943;28;20047;-29
2023/10/24 12:30:03;;;;;;;1.17;1.00;;;;;;;;;;4974210;28;20051;-28
2023/10/24 12:32:30;;;;;;;1.35;1.08;;;20.80;65.20;;;;;;4974019;28;20054;-29
2023/10/24 12:34:57;;;;;;;1.33;1.10;;;;;;;;;;4973671;28;20047;-29
2023/10/24 12:37:24;;;;;;;1.55;1.10;;;;;;;;;;4975458;28;20078;-29
2023/10/24 12:39:53;;;;;;;1.50;1.20;;;21.30;65.40;;;;;;4975188;28;20470;-27
2023/10/24 12:42:20;;;;;;;1.50;1.25;;;20.10;78.30;;;;;;4974463;28;20046;-27
2023/10/24 12:44:48;;;;;;;2.17;1.40;;;21.10;60.40;;;;;;4974064;28;20137;-29
2023/10/24 12:47:15;;;;;;;1.20;1.10;;;21.20;62.00;;;;;;4974170;28;20051;-28
2023/10/24 12:49:42;;;;;;;1.25;1.10;;;;;;;;;;4974335;28;20051;-27
2023/10/24 12:52:09;;;;;;;2.22;1.20;;;;;;;;;;4974508;28;20555;-29
2023/10/24 12:54:36;;;;;;;1.33;1.20;;;21.20;62.30;;;;;;4974431;28;20175;-27
2023/10/24 12:57:03;;;;;;;1.92;1.30;;;20.60;78.50;;;;;;4974011;28;20101;-27
2023/10/24 12:59:30;;;;;;;1.15;1.05;;;20.80;73.90;;;;;;4974524;28;20495;-27
2023/10/24 13:01:58;;;;;;;1.33;1.20;;;20.70;78.70;;;;;;4974353;28;20051;-27
2023/10/24 13:04:25;;;;;;;1.55;1.20;;;;;;;;;;4974539;28;20058;-27
2023/10/24 13:06:54;;;;;;;2.15;1.30;;;20.80;78.40;;;;;;4974126;28;20051;-27
2023/10/24 13:09:21;;;;;;;1.52;1.10;;;;;;;;;;4974410;28;20058;-27
2023/10/24 13:11:48;;;;;;;2.22;1.05;;;22.00;79.00;;;;;;4981092;28;20046;-27
2023/10/24 13:14:15;;;;;;;1.92;1.25;;;21.20;79.40;;;;;;4993356;28;20104;-27